sensor_id;sensor_type;location;lat;lon;timestamp;P1;durP1;ratioP1;P2;durP2;ratioP2
19495;SDS011;9888;48.606;9.630;2023-01-29T00:00:05;18.87;;;9.40;;
19495;SDS011;9888;48.606;9.630;2023-01-29T00:02:35;21.60;;;9.17;;
19495;SDS011;9888;48.606;9.630;2023-01-29T00:05:04;18.17;;;8.07;;
19495;SDS011;9888;48.606;9.630;2023-01-29T00:07:33;18.60;;;8.77;;
19495;SDS011;9888;48.606;9.630;2023-01-29T00:10:03;17.93;;;8.70;;
19495;SDS011;9888;48.606;9.630;2023-01-29T00:12:31;19.93;;;8.10;;
19495;SDS011;9888;48.606;9.630;2023-01-29T00:14:58;20.50;;;9.50;;
19495;SDS011;9888;48.606;9.630;2023-01-29T00:17:27;18.23;;;8.30;;
19495;SDS011;9888;48.606;9.630;2023-01-29T00:19:56;22.43;;;9.60;;
19495;SDS011;9888;48.606;9.630;2023-01-29T00:22:24;22.67;;;9.27;;
19495;SDS011;9888;48.606;9.630;2023-01-29T00:24:51;18.97;;;8.93;;
19495;SDS011;9888;48.606;9.630;2023-01-29T00:27:18;17.57;;;8.50;;
19495;SDS011;9888;48.606;9.630;2023-01-29T00:29:47;22.67;;;10.07;;
19495;SDS011;9888;48.606;9.630;2023-01-29T00:32:34;20.00;;;9.57;;
19495;SDS011;9888;48.606;9.630;2023-01-29T00:35:02;19.50;;;9.20;;
19495;SDS011;9888;48.606;9.630;2023-01-29T00:37:33;17.10;;;8.10;;
19495;SDS011;9888;48.606;9.630;2023-01-29T00:40:05;17.80;;;9.07;;
19495;SDS011;9888;48.606;9.630;2023-01-29T00:42:33;19.73;;;9.53;;
19495;SDS011;9888;48.606;9.630;2023-01-29T00:45:18;18.43;;;8.47;;
19495;SDS011;9888;48.606;9.630;2023-01-29T00:47:45;18.20;;;7.70;;
19495;SDS011;9888;48.606;9.630;2023-01-29T00:50:13;17.67;;;7.60;;
19495;SDS011;9888;48.606;9.630;2023-01-29T00:52:40;16.27;;;7.30;;
19495;SDS011;9888;48.606;9.630;2023-01-29T00:55:08;18.40;;;7.20;;
19495;SDS011;9888;48.606;9.630;2023-01-29T00:57:36;17.20;;;7.30;;
19495;SDS011;9888;48.606;9.630;2023-01-29T01:00:04;15.80;;;7.27;;
19495;SDS011;9888;48.606;9.630;2023-01-29T01:02:35;17.77;;;6.80;;
19495;SDS011;9888;48.606;9.630;2023-01-29T01:05:20;13.27;;;6.40;;
19495;SDS011;9888;48.606;9.630;2023-01-29T01:07:50;15.07;;;6.60;;
19495;SDS011;9888;48.606;9.630;2023-01-29T01:10:19;15.00;;;6.30;;
19495;SDS011;9888;48.606;9.630;2023-01-29T01:12:53;13.83;;;6.40;;
19495;SDS011;9888;48.606;9.630;2023-01-29T01:15:36;18.10;;;7.07;;
19495;SDS011;9888;48.606;9.630;2023-01-29T01:18:05;15.00;;;6.53;;
19495;SDS011;9888;48.606;9.630;2023-01-29T01:20:33;17.80;;;7.20;;
19495;SDS011;9888;48.606;9.630;2023-01-29T01:23:01;17.97;;;7.30;;
19495;SDS011;9888;48.606;9.630;2023-01-29T01:25:27;16.90;;;7.27;;
19495;SDS011;9888;48.606;9.630;2023-01-29T01:27:55;18.00;;;6.93;;
19495;SDS011;9888;48.606;9.630;2023-01-29T01:30:23;17.70;;;7.67;;
19495;SDS011;9888;48.606;9.630;2023-01-29T01:32:51;18.80;;;7.13;;
19495;SDS011;9888;48.606;9.630;2023-01-29T01:35:18;16.10;;;6.43;;
19495;SDS011;9888;48.606;9.630;2023-01-29T01:37:46;16.47;;;6.87;;
19495;SDS011;9888;48.606;9.630;2023-01-29T01:40:20;14.77;;;6.90;;
19495;SDS011;9888;48.606;9.630;2023-01-29T01:42:50;16.73;;;7.20;;
19495;SDS011;9888;48.606;9.630;2023-01-29T01:45:31;16.83;;;7.00;;
19495;SDS011;9888;48.606;9.630;2023-01-29T01:50:45;16.47;;;6.77;;
19495;SDS011;9888;48.606;9.630;2023-01-29T01:53:22;13.60;;;5.83;;
19495;SDS011;9888;48.606;9.630;2023-01-29T01:55:56;15.50;;;6.83;;
19495;SDS011;9888;48.606;9.630;2023-01-29T01:58:29;17.17;;;6.93;;
19495;SDS011;9888;48.606;9.630;2023-01-29T02:01:08;16.03;;;6.63;;
19495;SDS011;9888;48.606;9.630;2023-01-29T02:03:41;12.43;;;5.70;;
19495;SDS011;9888;48.606;9.630;2023-01-29T02:06:34;16.30;;;6.83;;
19495;SDS011;9888;48.606;9.630;2023-01-29T02:09:24;13.43;;;6.07;;
19495;SDS011;9888;48.606;9.630;2023-01-29T02:12:10;13.67;;;6.03;;
19495;SDS011;9888;48.606;9.630;2023-01-29T02:14:41;15.10;;;6.07;;
19495;SDS011;9888;48.606;9.630;2023-01-29T02:17:10;14.37;;;6.20;;
19495;SDS011;9888;48.606;9.630;2023-01-29T02:22:23;13.50;;;5.40;;
19495;SDS011;9888;48.606;9.630;2023-01-29T02:25:16;13.40;;;5.67;;
19495;SDS011;9888;48.606;9.630;2023-01-29T02:33:53;13.13;;;5.80;;
19495;SDS011;9888;48.606;9.630;2023-01-29T02:36:40;12.80;;;5.67;;
19495;SDS011;9888;48.606;9.630;2023-01-29T02:44:42;13.33;;;5.87;;
19495;SDS011;9888;48.606;9.630;2023-01-29T02:47:16;12.17;;;5.20;;
19495;SDS011;9888;48.606;9.630;2023-01-29T02:49:57;12.30;;;5.57;;
19495;SDS011;9888;48.606;9.630;2023-01-29T02:52:42;14.40;;;5.27;;
19495;SDS011;9888;48.606;9.630;2023-01-29T02:55:21;15.57;;;5.07;;
19495;SDS011;9888;48.606;9.630;2023-01-29T02:57:58;17.50;;;7.07;;
19495;SDS011;9888;48.606;9.630;2023-01-29T03:00:32;13.57;;;5.63;;
19495;SDS011;9888;48.606;9.630;2023-01-29T03:03:06;13.73;;;5.53;;
19495;SDS011;9888;48.606;9.630;2023-01-29T03:05:47;17.73;;;6.27;;
19495;SDS011;9888;48.606;9.630;2023-01-29T03:08:20;13.03;;;5.93;;
19495;SDS011;9888;48.606;9.630;2023-01-29T03:11:10;14.57;;;6.30;;
19495;SDS011;9888;48.606;9.630;2023-01-29T03:19:37;18.03;;;6.87;;
19495;SDS011;9888;48.606;9.630;2023-01-29T03:22:08;15.00;;;6.10;;
19495;SDS011;9888;48.606;9.630;2023-01-29T03:27:42;12.60;;;5.60;;
19495;SDS011;9888;48.606;9.630;2023-01-29T03:30:31;15.27;;;6.13;;
19495;SDS011;9888;48.606;9.630;2023-01-29T03:33:20;13.07;;;6.00;;
19495;SDS011;9888;48.606;9.630;2023-01-29T03:35:52;15.83;;;6.00;;
19495;SDS011;9888;48.606;9.630;2023-01-29T03:38:27;14.00;;;5.40;;
19495;SDS011;9888;48.606;9.630;2023-01-29T03:40:58;15.17;;;5.80;;
19495;SDS011;9888;48.606;9.630;2023-01-29T03:43:35;17.27;;;6.90;;
19495;SDS011;9888;48.606;9.630;2023-01-29T03:46:23;12.83;;;5.40;;
19495;SDS011;9888;48.606;9.630;2023-01-29T03:49:01;14.70;;;5.80;;
19495;SDS011;9888;48.606;9.630;2023-01-29T03:51:52;14.00;;;6.57;;
19495;SDS011;9888;48.606;9.630;2023-01-29T03:54:42;16.53;;;7.03;;
19495;SDS011;9888;48.606;9.630;2023-01-29T04:00:13;16.33;;;5.93;;
19495;SDS011;9888;48.606;9.630;2023-01-29T04:03:00;11.60;;;5.00;;
19495;SDS011;9888;48.606;9.630;2023-01-29T04:05:51;11.83;;;5.00;;
19495;SDS011;9888;48.606;9.630;2023-01-29T04:08:24;16.77;;;6.40;;
19495;SDS011;9888;48.606;9.630;2023-01-29T04:10:58;15.27;;;6.63;;
19495;SDS011;9888;48.606;9.630;2023-01-29T04:13:30;16.13;;;6.70;;
19495;SDS011;9888;48.606;9.630;2023-01-29T04:15:58;16.10;;;6.07;;
19495;SDS011;9888;48.606;9.630;2023-01-29T04:18:29;14.97;;;6.30;;
19495;SDS011;9888;48.606;9.630;2023-01-29T04:20:56;17.07;;;6.90;;
19495;SDS011;9888;48.606;9.630;2023-01-29T04:23:26;15.57;;;6.00;;
19495;SDS011;9888;48.606;9.630;2023-01-29T04:28:58;14.97;;;6.63;;
19495;SDS011;9888;48.606;9.630;2023-01-29T04:31:49;18.67;;;6.67;;
19495;SDS011;9888;48.606;9.630;2023-01-29T04:34:49;17.77;;;6.57;;
19495;SDS011;9888;48.606;9.630;2023-01-29T04:37:27;17.43;;;6.90;;
19495;SDS011;9888;48.606;9.630;2023-01-29T04:40:09;17.33;;;6.10;;
19495;SDS011;9888;48.606;9.630;2023-01-29T04:48:27;14.97;;;6.40;;
19495;SDS011;9888;48.606;9.630;2023-01-29T04:51:42;13.27;;;5.63;;
19495;SDS011;9888;48.606;9.630;2023-01-29T04:54:21;15.97;;;6.00;;
19495;SDS011;9888;48.606;9.630;2023-01-29T04:57:03;13.53;;;6.00;;
19495;SDS011;9888;48.606;9.630;2023-01-29T04:59:52;16.77;;;6.80;;
19495;SDS011;9888;48.606;9.630;2023-01-29T05:02:47;13.90;;;6.20;;
19495;SDS011;9888;48.606;9.630;2023-01-29T05:05:15;19.27;;;6.03;;
19495;SDS011;9888;48.606;9.630;2023-01-29T05:07:45;16.00;;;7.13;;
19495;SDS011;9888;48.606;9.630;2023-01-29T05:10:13;18.80;;;6.70;;
19495;SDS011;9888;48.606;9.630;2023-01-29T05:12:42;15.87;;;5.97;;
19495;SDS011;9888;48.606;9.630;2023-01-29T05:15:15;15.53;;;6.20;;
19495;SDS011;9888;48.606;9.630;2023-01-29T05:17:48;12.53;;;5.70;;
19495;SDS011;9888;48.606;9.630;2023-01-29T05:20:18;14.23;;;5.60;;
19495;SDS011;9888;48.606;9.630;2023-01-29T05:22:46;14.37;;;5.50;;
19495;SDS011;9888;48.606;9.630;2023-01-29T05:25:22;13.80;;;5.97;;
19495;SDS011;9888;48.606;9.630;2023-01-29T05:27:52;16.47;;;6.77;;
19495;SDS011;9888;48.606;9.630;2023-01-29T05:30:32;15.73;;;6.17;;
19495;SDS011;9888;48.606;9.630;2023-01-29T05:33:02;17.53;;;6.63;;
19495;SDS011;9888;48.606;9.630;2023-01-29T05:35:29;16.57;;;6.63;;
19495;SDS011;9888;48.606;9.630;2023-01-29T05:37:59;15.60;;;6.20;;
19495;SDS011;9888;48.606;9.630;2023-01-29T05:40:30;15.33;;;6.53;;
19495;SDS011;9888;48.606;9.630;2023-01-29T05:46:27;16.87;;;5.70;;
19495;SDS011;9888;48.606;9.630;2023-01-29T05:48:55;16.00;;;6.27;;
19495;SDS011;9888;48.606;9.630;2023-01-29T05:51:22;16.77;;;6.40;;
19495;SDS011;9888;48.606;9.630;2023-01-29T05:53:50;13.30;;;6.03;;
19495;SDS011;9888;48.606;9.630;2023-01-29T05:56:17;13.90;;;5.50;;
19495;SDS011;9888;48.606;9.630;2023-01-29T05:58:45;19.10;;;6.47;;
19495;SDS011;9888;48.606;9.630;2023-01-29T06:01:15;17.80;;;6.77;;
19495;SDS011;9888;48.606;9.630;2023-01-29T06:03:44;19.30;;;6.43;;
19495;SDS011;9888;48.606;9.630;2023-01-29T06:06:12;15.33;;;5.87;;
19495;SDS011;9888;48.606;9.630;2023-01-29T06:08:41;13.17;;;5.10;;
19495;SDS011;9888;48.606;9.630;2023-01-29T06:11:09;13.67;;;5.80;;
19495;SDS011;9888;48.606;9.630;2023-01-29T06:13:38;15.20;;;6.00;;
19495;SDS011;9888;48.606;9.630;2023-01-29T06:19:18;12.17;;;5.53;;
19495;SDS011;9888;48.606;9.630;2023-01-29T06:21:46;12.43;;;4.60;;
19495;SDS011;9888;48.606;9.630;2023-01-29T06:24:14;13.83;;;5.10;;
19495;SDS011;9888;48.606;9.630;2023-01-29T06:26:41;10.93;;;4.10;;
19495;SDS011;9888;48.606;9.630;2023-01-29T06:29:09;13.70;;;4.97;;
19495;SDS011;9888;48.606;9.630;2023-01-29T06:31:39;14.13;;;5.60;;
19495;SDS011;9888;48.606;9.630;2023-01-29T06:34:06;14.00;;;5.87;;
19495;SDS011;9888;48.606;9.630;2023-01-29T06:36:33;12.73;;;4.80;;
19495;SDS011;9888;48.606;9.630;2023-01-29T06:39:01;11.17;;;4.97;;
19495;SDS011;9888;48.606;9.630;2023-01-29T06:41:28;13.97;;;5.20;;
19495;SDS011;9888;48.606;9.630;2023-01-29T06:43:55;11.13;;;4.77;;
19495;SDS011;9888;48.606;9.630;2023-01-29T06:46:22;11.30;;;4.73;;
19495;SDS011;9888;48.606;9.630;2023-01-29T06:48:49;11.23;;;4.70;;
19495;SDS011;9888;48.606;9.630;2023-01-29T06:51:17;14.90;;;5.10;;
19495;SDS011;9888;48.606;9.630;2023-01-29T06:53:43;14.17;;;5.43;;
19495;SDS011;9888;48.606;9.630;2023-01-29T06:56:10;13.27;;;5.00;;
19495;SDS011;9888;48.606;9.630;2023-01-29T06:58:37;11.23;;;5.20;;
19495;SDS011;9888;48.606;9.630;2023-01-29T07:01:06;14.00;;;6.20;;
19495;SDS011;9888;48.606;9.630;2023-01-29T07:03:34;13.53;;;5.20;;
19495;SDS011;9888;48.606;9.630;2023-01-29T07:06:02;13.00;;;5.20;;
19495;SDS011;9888;48.606;9.630;2023-01-29T07:08:34;11.50;;;4.47;;
19495;SDS011;9888;48.606;9.630;2023-01-29T07:11:05;12.10;;;4.40;;
19495;SDS011;9888;48.606;9.630;2023-01-29T07:13:37;10.90;;;4.03;;
19495;SDS011;9888;48.606;9.630;2023-01-29T07:16:08;12.60;;;4.10;;
19495;SDS011;9888;48.606;9.630;2023-01-29T07:18:42;12.37;;;4.63;;
19495;SDS011;9888;48.606;9.630;2023-01-29T07:21:13;10.63;;;4.10;;
19495;SDS011;9888;48.606;9.630;2023-01-29T07:23:40;11.43;;;3.83;;
19495;SDS011;9888;48.606;9.630;2023-01-29T07:26:09;14.50;;;5.57;;
19495;SDS011;9888;48.606;9.630;2023-01-29T07:28:38;13.93;;;4.47;;
19495;SDS011;9888;48.606;9.630;2023-01-29T07:31:11;11.17;;;4.70;;
19495;SDS011;9888;48.606;9.630;2023-01-29T07:33:41;12.10;;;4.63;;
19495;SDS011;9888;48.606;9.630;2023-01-29T07:36:18;10.70;;;4.17;;
19495;SDS011;9888;48.606;9.630;2023-01-29T07:38:48;11.33;;;4.10;;
19495;SDS011;9888;48.606;9.630;2023-01-29T07:41:16;12.13;;;4.23;;
19495;SDS011;9888;48.606;9.630;2023-01-29T07:43:44;14.40;;;5.90;;
19495;SDS011;9888;48.606;9.630;2023-01-29T07:46:12;11.13;;;4.70;;
19495;SDS011;9888;48.606;9.630;2023-01-29T07:48:41;10.90;;;4.67;;
19495;SDS011;9888;48.606;9.630;2023-01-29T07:51:08;13.17;;;5.50;;
19495;SDS011;9888;48.606;9.630;2023-01-29T07:53:36;11.60;;;4.73;;
19495;SDS011;9888;48.606;9.630;2023-01-29T07:56:04;12.23;;;4.90;;
19495;SDS011;9888;48.606;9.630;2023-01-29T07:58:31;14.90;;;6.13;;
19495;SDS011;9888;48.606;9.630;2023-01-29T08:00:59;11.60;;;4.60;;
19495;SDS011;9888;48.606;9.630;2023-01-29T08:03:32;10.97;;;4.37;;
19495;SDS011;9888;48.606;9.630;2023-01-29T08:05:59;13.20;;;4.63;;
19495;SDS011;9888;48.606;9.630;2023-01-29T08:08:27;10.63;;;4.47;;
19495;SDS011;9888;48.606;9.630;2023-01-29T08:10:55;13.20;;;4.90;;
19495;SDS011;9888;48.606;9.630;2023-01-29T08:13:30;11.33;;;4.30;;
19495;SDS011;9888;48.606;9.630;2023-01-29T08:16:00;9.63;;;3.83;;
19495;SDS011;9888;48.606;9.630;2023-01-29T08:18:31;13.73;;;4.77;;
19495;SDS011;9888;48.606;9.630;2023-01-29T08:20:58;12.40;;;4.10;;
19495;SDS011;9888;48.606;9.630;2023-01-29T08:23:25;9.90;;;4.03;;
19495;SDS011;9888;48.606;9.630;2023-01-29T08:25:51;9.23;;;3.87;;
19495;SDS011;9888;48.606;9.630;2023-01-29T08:28:18;10.77;;;4.50;;
19495;SDS011;9888;48.606;9.630;2023-01-29T08:30:45;10.50;;;4.30;;
19495;SDS011;9888;48.606;9.630;2023-01-29T08:33:13;10.50;;;4.30;;
19495;SDS011;9888;48.606;9.630;2023-01-29T08:35:50;11.03;;;4.47;;
19495;SDS011;9888;48.606;9.630;2023-01-29T08:38:25;11.07;;;4.03;;
19495;SDS011;9888;48.606;9.630;2023-01-29T08:41:04;13.43;;;3.93;;
19495;SDS011;9888;48.606;9.630;2023-01-29T08:43:32;10.43;;;4.27;;
19495;SDS011;9888;48.606;9.630;2023-01-29T08:46:04;10.20;;;4.17;;
19495;SDS011;9888;48.606;9.630;2023-01-29T08:48:33;12.00;;;4.50;;
19495;SDS011;9888;48.606;9.630;2023-01-29T08:51:00;10.53;;;3.73;;
19495;SDS011;9888;48.606;9.630;2023-01-29T08:53:30;8.67;;;3.13;;
19495;SDS011;9888;48.606;9.630;2023-01-29T08:55:57;8.00;;;3.30;;
19495;SDS011;9888;48.606;9.630;2023-01-29T08:58:24;10.77;;;3.70;;
19495;SDS011;9888;48.606;9.630;2023-01-29T09:00:51;8.63;;;3.33;;
19495;SDS011;9888;48.606;9.630;2023-01-29T09:03:18;7.83;;;3.20;;
19495;SDS011;9888;48.606;9.630;2023-01-29T09:05:46;8.90;;;3.30;;
19495;SDS011;9888;48.606;9.630;2023-01-29T09:08:13;9.93;;;3.70;;
19495;SDS011;9888;48.606;9.630;2023-01-29T09:10:41;10.87;;;4.20;;
19495;SDS011;9888;48.606;9.630;2023-01-29T09:13:11;8.30;;;3.30;;
19495;SDS011;9888;48.606;9.630;2023-01-29T09:15:41;8.90;;;3.40;;
19495;SDS011;9888;48.606;9.630;2023-01-29T09:18:15;10.10;;;4.10;;
19495;SDS011;9888;48.606;9.630;2023-01-29T09:20:44;8.97;;;3.80;;
19495;SDS011;9888;48.606;9.630;2023-01-29T09:23:12;9.57;;;4.13;;
19495;SDS011;9888;48.606;9.630;2023-01-29T09:25:41;10.17;;;3.80;;
19495;SDS011;9888;48.606;9.630;2023-01-29T09:28:08;9.67;;;4.10;;
19495;SDS011;9888;48.606;9.630;2023-01-29T09:30:37;12.87;;;4.23;;
19495;SDS011;9888;48.606;9.630;2023-01-29T09:33:04;8.47;;;3.53;;
19495;SDS011;9888;48.606;9.630;2023-01-29T09:35:35;11.33;;;4.23;;
19495;SDS011;9888;48.606;9.630;2023-01-29T09:38:02;8.70;;;3.83;;
19495;SDS011;9888;48.606;9.630;2023-01-29T09:40:45;10.27;;;4.03;;
19495;SDS011;9888;48.606;9.630;2023-01-29T09:43:33;11.37;;;4.10;;
19495;SDS011;9888;48.606;9.630;2023-01-29T09:46:34;11.13;;;4.30;;
19495;SDS011;9888;48.606;9.630;2023-01-29T09:49:26;9.37;;;3.13;;
19495;SDS011;9888;48.606;9.630;2023-01-29T09:52:10;9.17;;;3.70;;
19495;SDS011;9888;48.606;9.630;2023-01-29T09:57:30;9.07;;;3.77;;
19495;SDS011;9888;48.606;9.630;2023-01-29T10:03:37;10.37;;;3.33;;
19495;SDS011;9888;48.606;9.630;2023-01-29T10:09:24;9.77;;;4.03;;
19495;SDS011;9888;48.606;9.630;2023-01-29T10:18:17;10.97;;;4.40;;
19495;SDS011;9888;48.606;9.630;2023-01-29T10:24:16;10.20;;;4.20;;
19495;SDS011;9888;48.606;9.630;2023-01-29T10:26:56;10.50;;;4.20;;
19495;SDS011;9888;48.606;9.630;2023-01-29T10:29:24;9.30;;;4.27;;
19495;SDS011;9888;48.606;9.630;2023-01-29T10:31:57;10.60;;;4.20;;
19495;SDS011;9888;48.606;9.630;2023-01-29T10:34:37;11.23;;;4.50;;
19495;SDS011;9888;48.606;9.630;2023-01-29T10:37:16;11.97;;;4.83;;
19495;SDS011;9888;48.606;9.630;2023-01-29T10:39:48;10.13;;;5.00;;
19495;SDS011;9888;48.606;9.630;2023-01-29T10:42:27;10.80;;;4.53;;
19495;SDS011;9888;48.606;9.630;2023-01-29T10:45:12;13.00;;;5.07;;
19495;SDS011;9888;48.606;9.630;2023-01-29T10:47:56;10.10;;;4.47;;
19495;SDS011;9888;48.606;9.630;2023-01-29T10:50:51;9.60;;;4.63;;
19495;SDS011;9888;48.606;9.630;2023-01-29T10:53:32;13.03;;;5.40;;
19495;SDS011;9888;48.606;9.630;2023-01-29T10:56:33;9.07;;;3.70;;
19495;SDS011;9888;48.606;9.630;2023-01-29T10:59:35;9.13;;;4.33;;
19495;SDS011;9888;48.606;9.630;2023-01-29T11:02:24;9.90;;;4.40;;
19495;SDS011;9888;48.606;9.630;2023-01-29T11:04:52;11.43;;;5.00;;
19495;SDS011;9888;48.606;9.630;2023-01-29T11:07:19;11.70;;;4.40;;
19495;SDS011;9888;48.606;9.630;2023-01-29T11:09:55;10.40;;;4.70;;
19495;SDS011;9888;48.606;9.630;2023-01-29T11:12:34;10.93;;;4.60;;
19495;SDS011;9888;48.606;9.630;2023-01-29T11:15:16;11.40;;;5.10;;
19495;SDS011;9888;48.606;9.630;2023-01-29T11:18:05;12.30;;;5.00;;
19495;SDS011;9888;48.606;9.630;2023-01-29T11:20:39;11.17;;;5.10;;
19495;SDS011;9888;48.606;9.630;2023-01-29T11:23:32;9.93;;;4.57;;
19495;SDS011;9888;48.606;9.630;2023-01-29T11:25:59;11.50;;;5.53;;
19495;SDS011;9888;48.606;9.630;2023-01-29T11:31:25;10.70;;;4.60;;
19495;SDS011;9888;48.606;9.630;2023-01-29T11:34:17;11.83;;;5.20;;
19495;SDS011;9888;48.606;9.630;2023-01-29T11:36:55;12.33;;;4.70;;
19495;SDS011;9888;48.606;9.630;2023-01-29T11:39:26;10.97;;;4.77;;
19495;SDS011;9888;48.606;9.630;2023-01-29T11:42:01;9.23;;;4.00;;
19495;SDS011;9888;48.606;9.630;2023-01-29T11:47:14;13.93;;;5.50;;
19495;SDS011;9888;48.606;9.630;2023-01-29T11:52:16;10.60;;;4.63;;
19495;SDS011;9888;48.606;9.630;2023-01-29T11:57:24;14.63;;;5.90;;
19495;SDS011;9888;48.606;9.630;2023-01-29T11:59:52;10.50;;;4.90;;
19495;SDS011;9888;48.606;9.630;2023-01-29T12:02:26;13.20;;;5.37;;
19495;SDS011;9888;48.606;9.630;2023-01-29T12:04:58;11.57;;;5.30;;
19495;SDS011;9888;48.606;9.630;2023-01-29T12:07:40;12.60;;;4.80;;
19495;SDS011;9888;48.606;9.630;2023-01-29T12:10:28;12.03;;;5.00;;
19495;SDS011;9888;48.606;9.630;2023-01-29T12:15:48;12.70;;;5.60;;
19495;SDS011;9888;48.606;9.630;2023-01-29T12:18:31;11.00;;;5.60;;
19495;SDS011;9888;48.606;9.630;2023-01-29T12:21:09;13.27;;;6.03;;
19495;SDS011;9888;48.606;9.630;2023-01-29T12:23:56;12.40;;;5.60;;
19495;SDS011;9888;48.606;9.630;2023-01-29T12:26:38;13.23;;;6.20;;
19495;SDS011;9888;48.606;9.630;2023-01-29T12:32:06;10.93;;;4.93;;
19495;SDS011;9888;48.606;9.630;2023-01-29T12:34:55;11.00;;;4.70;;
19495;SDS011;9888;48.606;9.630;2023-01-29T12:37:47;10.60;;;5.33;;
19495;SDS011;9888;48.606;9.630;2023-01-29T12:40:30;12.67;;;5.00;;
19495;SDS011;9888;48.606;9.630;2023-01-29T12:46:24;13.43;;;5.20;;
19495;SDS011;9888;48.606;9.630;2023-01-29T12:48:57;12.43;;;5.50;;
19495;SDS011;9888;48.606;9.630;2023-01-29T12:51:32;12.07;;;5.40;;
19495;SDS011;9888;48.606;9.630;2023-01-29T12:54:08;11.53;;;5.37;;
19495;SDS011;9888;48.606;9.630;2023-01-29T12:56:43;13.00;;;5.73;;
19495;SDS011;9888;48.606;9.630;2023-01-29T12:59:21;12.80;;;5.67;;
19495;SDS011;9888;48.606;9.630;2023-01-29T13:02:30;13.77;;;6.00;;
19495;SDS011;9888;48.606;9.630;2023-01-29T13:07:53;12.33;;;5.43;;
19495;SDS011;9888;48.606;9.630;2023-01-29T13:10:28;14.63;;;6.87;;
19495;SDS011;9888;48.606;9.630;2023-01-29T13:16:32;14.40;;;5.93;;
19495;SDS011;9888;48.606;9.630;2023-01-29T13:21:58;15.17;;;6.10;;
19495;SDS011;9888;48.606;9.630;2023-01-29T13:24:33;11.83;;;5.50;;
19495;SDS011;9888;48.606;9.630;2023-01-29T13:27:20;13.77;;;6.30;;
19495;SDS011;9888;48.606;9.630;2023-01-29T13:29:51;12.13;;;5.90;;
19495;SDS011;9888;48.606;9.630;2023-01-29T13:32:29;15.13;;;5.97;;
19495;SDS011;9888;48.606;9.630;2023-01-29T13:35:02;14.60;;;4.80;;
19495;SDS011;9888;48.606;9.630;2023-01-29T13:37:33;13.40;;;5.27;;
19495;SDS011;9888;48.606;9.630;2023-01-29T13:40:17;13.90;;;6.07;;
19495;SDS011;9888;48.606;9.630;2023-01-29T13:42:51;15.57;;;6.07;;
19495;SDS011;9888;48.606;9.630;2023-01-29T13:45:20;12.83;;;6.07;;
19495;SDS011;9888;48.606;9.630;2023-01-29T13:47:49;14.37;;;5.80;;
19495;SDS011;9888;48.606;9.630;2023-01-29T13:50:18;11.77;;;5.83;;
19495;SDS011;9888;48.606;9.630;2023-01-29T13:52:58;12.90;;;6.40;;
19495;SDS011;9888;48.606;9.630;2023-01-29T13:55:39;14.23;;;5.87;;
19495;SDS011;9888;48.606;9.630;2023-01-29T13:58:16;12.53;;;6.00;;
19495;SDS011;9888;48.606;9.630;2023-01-29T14:01:03;9.57;;;3.40;;
19495;SDS011;9888;48.606;9.630;2023-01-29T14:06:11;12.20;;;5.93;;
19495;SDS011;9888;48.606;9.630;2023-01-29T14:09:02;13.47;;;5.57;;
19495;SDS011;9888;48.606;9.630;2023-01-29T14:11:49;12.07;;;5.80;;
19495;SDS011;9888;48.606;9.630;2023-01-29T14:17:15;14.00;;;6.60;;
19495;SDS011;9888;48.606;9.630;2023-01-29T14:19:52;13.70;;;5.87;;
19495;SDS011;9888;48.606;9.630;2023-01-29T14:22:39;15.07;;;6.40;;
19495;SDS011;9888;48.606;9.630;2023-01-29T14:25:15;13.63;;;5.70;;
19495;SDS011;9888;48.606;9.630;2023-01-29T14:27:47;17.47;;;6.00;;
19495;SDS011;9888;48.606;9.630;2023-01-29T14:30:15;13.50;;;5.90;;
19495;SDS011;9888;48.606;9.630;2023-01-29T14:32:47;15.23;;;6.87;;
19495;SDS011;9888;48.606;9.630;2023-01-29T14:37:47;14.43;;;6.50;;
19495;SDS011;9888;48.606;9.630;2023-01-29T14:42:44;15.33;;;6.70;;
19495;SDS011;9888;48.606;9.630;2023-01-29T14:45:22;13.20;;;6.17;;
19495;SDS011;9888;48.606;9.630;2023-01-29T14:47:52;12.43;;;5.13;;
19495;SDS011;9888;48.606;9.630;2023-01-29T14:53:08;18.30;;;7.07;;
19495;SDS011;9888;48.606;9.630;2023-01-29T14:56:40;15.53;;;5.60;;
19495;SDS011;9888;48.606;9.630;2023-01-29T14:59:18;14.80;;;6.13;;
19495;SDS011;9888;48.606;9.630;2023-01-29T15:02:10;13.00;;;5.70;;
19495;SDS011;9888;48.606;9.630;2023-01-29T15:04:47;14.27;;;6.30;;
19495;SDS011;9888;48.606;9.630;2023-01-29T15:07:19;16.43;;;6.90;;
19495;SDS011;9888;48.606;9.630;2023-01-29T15:10:05;15.20;;;6.30;;
19495;SDS011;9888;48.606;9.630;2023-01-29T15:12:56;13.50;;;6.50;;
19495;SDS011;9888;48.606;9.630;2023-01-29T15:18:16;15.23;;;6.50;;
19495;SDS011;9888;48.606;9.630;2023-01-29T15:21:04;14.53;;;6.93;;
19495;SDS011;9888;48.606;9.630;2023-01-29T15:23:37;13.70;;;6.17;;
19495;SDS011;9888;48.606;9.630;2023-01-29T15:26:17;16.67;;;6.87;;
19495;SDS011;9888;48.606;9.630;2023-01-29T15:28:56;13.57;;;6.50;;
19495;SDS011;9888;48.606;9.630;2023-01-29T15:31:25;13.40;;;6.40;;
19495;SDS011;9888;48.606;9.630;2023-01-29T15:33:56;17.73;;;7.70;;
19495;SDS011;9888;48.606;9.630;2023-01-29T15:36:27;16.13;;;7.07;;
19495;SDS011;9888;48.606;9.630;2023-01-29T15:39:10;12.67;;;6.23;;
19495;SDS011;9888;48.606;9.630;2023-01-29T15:41:39;15.87;;;7.60;;
19495;SDS011;9888;48.606;9.630;2023-01-29T15:44:12;16.07;;;7.10;;
19495;SDS011;9888;48.606;9.630;2023-01-29T15:46:44;18.80;;;7.87;;
19495;SDS011;9888;48.606;9.630;2023-01-29T15:49:16;15.40;;;6.93;;
19495;SDS011;9888;48.606;9.630;2023-01-29T15:52:04;14.73;;;7.30;;
19495;SDS011;9888;48.606;9.630;2023-01-29T15:54:41;15.13;;;6.40;;
19495;SDS011;9888;48.606;9.630;2023-01-29T15:57:12;13.73;;;6.73;;
19495;SDS011;9888;48.606;9.630;2023-01-29T15:59:47;13.90;;;6.57;;
19495;SDS011;9888;48.606;9.630;2023-01-29T16:02:38;16.67;;;7.30;;
19495;SDS011;9888;48.606;9.630;2023-01-29T16:05:22;18.13;;;6.90;;
19495;SDS011;9888;48.606;9.630;2023-01-29T16:07:53;19.63;;;6.77;;
19495;SDS011;9888;48.606;9.630;2023-01-29T16:10:23;17.67;;;6.90;;
19495;SDS011;9888;48.606;9.630;2023-01-29T16:12:56;15.67;;;7.50;;
19495;SDS011;9888;48.606;9.630;2023-01-29T16:15:28;14.03;;;6.60;;
19495;SDS011;9888;48.606;9.630;2023-01-29T16:17:58;16.57;;;7.20;;
19495;SDS011;9888;48.606;9.630;2023-01-29T16:20:30;15.10;;;7.47;;
19495;SDS011;9888;48.606;9.630;2023-01-29T16:23:04;17.17;;;7.70;;
19495;SDS011;9888;48.606;9.630;2023-01-29T16:25:32;16.10;;;7.10;;
19495;SDS011;9888;48.606;9.630;2023-01-29T16:28:03;14.33;;;7.13;;
19495;SDS011;9888;48.606;9.630;2023-01-29T16:30:32;13.43;;;6.37;;
19495;SDS011;9888;48.606;9.630;2023-01-29T16:33:00;15.63;;;6.97;;
19495;SDS011;9888;48.606;9.630;2023-01-29T16:35:30;14.47;;;7.03;;
19495;SDS011;9888;48.606;9.630;2023-01-29T16:38:00;15.13;;;6.70;;
19495;SDS011;9888;48.606;9.630;2023-01-29T16:40:36;16.67;;;7.37;;
19495;SDS011;9888;48.606;9.630;2023-01-29T16:46:01;14.23;;;7.07;;
19495;SDS011;9888;48.606;9.630;2023-01-29T16:48:32;16.70;;;6.63;;
19495;SDS011;9888;48.606;9.630;2023-01-29T16:51:03;18.40;;;7.43;;
19495;SDS011;9888;48.606;9.630;2023-01-29T16:53:56;15.80;;;7.03;;
19495;SDS011;9888;48.606;9.630;2023-01-29T16:56:27;14.87;;;6.80;;
19495;SDS011;9888;48.606;9.630;2023-01-29T16:58:57;13.93;;;6.80;;
19495;SDS011;9888;48.606;9.630;2023-01-29T17:01:27;16.10;;;6.60;;
19495;SDS011;9888;48.606;9.630;2023-01-29T17:04:00;16.00;;;7.13;;
19495;SDS011;9888;48.606;9.630;2023-01-29T17:06:49;18.27;;;7.33;;
19495;SDS011;9888;48.606;9.630;2023-01-29T17:09:28;15.27;;;6.83;;
19495;SDS011;9888;48.606;9.630;2023-01-29T17:11:59;15.17;;;6.70;;
19495;SDS011;9888;48.606;9.630;2023-01-29T17:14:32;15.13;;;6.43;;
19495;SDS011;9888;48.606;9.630;2023-01-29T17:17:02;16.70;;;7.80;;
19495;SDS011;9888;48.606;9.630;2023-01-29T17:19:43;15.53;;;6.77;;
19495;SDS011;9888;48.606;9.630;2023-01-29T17:22:11;15.00;;;6.50;;